Flight Track Log - Related Links

Times and Time Zones

All times are in EDT time to prevent confusion due to time zone crossing. See the WJA520 flight status page for this flight to view local times or setup timezone preferences in your user account.

Time Position Orientation Groundspeed Altitude Reporting Facility
EDT Latitude Longitude Course Direction KTS MPH feet Rate Location/Type
Thu 06:31:11 AM 49.8667 -97.2333 93° East 150 173 2,100  Level Winnipeg Center
Thu 06:32:11 AM 49.8167 -97.2333 180° South 200 230 4,300 2,250 Climbing Winnipeg Center
Thu 06:33:11 AM 49.7833 -97.1500 122° Southeast 280 322 6,600 2,650 Climbing Winnipeg Center
Thu 06:34:11 AM 49.7667 -97.0500 104° East 310 357 9,600 3,000 Climbing Winnipeg Center
Thu 06:35:11 AM 49.7667 -96.8833 90° East 360 414 12,600 3,300 Climbing Winnipeg Center
Thu 06:36:00 AM 49.9280 -96.1333 93° East  Level FlightAware Approximate
Thu 06:36:11 AM 49.7833 -96.7333 80° East 370 426 16,200  Level Winnipeg Center
Thu 06:37:11 AM 49.8000 -96.5500 82° East 390 449 19,900 3,200 Climbing Winnipeg Center
Thu 06:38:11 AM 49.8000 -96.3667 90° East 420 483 22,600 2,750 Climbing Winnipeg Center
Thu 06:39:11 AM 49.8167 -96.1833 82° East 430 495 25,400 2,450 Climbing Winnipeg Center
Thu 06:40:11 AM 49.7833 -96.0000 106° East 460 529 27,500 2,100 Climbing Winnipeg Center
Thu 06:41:11 AM 49.7333 -95.7833 110° East 490 564 29,600 1,900 Climbing Winnipeg Center
Thu 06:42:11 AM 49.7000 -95.6000 106° East 510 587 31,300 1,800 Climbing Winnipeg Center
Thu 06:43:11 AM 49.6500 -95.3833 110° East 520 598 33,200 2,100 Climbing Winnipeg Center
Thu 06:44:11 AM 49.6000 -95.1667 110° East 520 598 35,500 2,150 Climbing Winnipeg Center
Thu 06:45:11 AM 49.5667 -94.9500 103° East 520 598 37,500 1,750 Climbing Winnipeg Center
Thu 06:46:11 AM 49.5000 -94.7500 117° Southeast 500 575 39,000 750 Climbing Winnipeg Center
Thu 06:47:11 AM 49.4667 -94.5667 106° East 480 552 39,000  Level Winnipeg Center
Thu 06:48:11 AM 49.4167 -94.3667 111° Southeast 480 552 39,000  Level Winnipeg Center
Thu 06:49:11 AM 49.3833 -94.1667 104° East 480 552 39,000  Level Winnipeg Center
Thu 06:50:11 AM 49.3167 -93.9667 117° Southeast 480 552 39,000  Level Winnipeg Center
Thu 06:51:11 AM 49.2833 -93.7833 106° East 480 552 39,000  Level Winnipeg Center
Thu 06:52:11 AM 49.2333 -93.6167 115° Southeast 480 552 39,000  Level Winnipeg Center
Thu 06:53:11 AM 49.1833 -93.4167 111° Southeast 480 552 39,000  Level Winnipeg Center
Thu 06:54:11 AM 49.1333 -93.2167 111° Southeast 480 552 39,000  Level Winnipeg Center
Thu 06:55:11 AM 49.0833 -93.0000 109° East 480 552 39,000  Level Winnipeg Center
Thu 06:56:11 AM 49.0333 -92.8333 115° Southeast 480 552 39,000  Level Winnipeg Center
Thu 06:57:11 AM 49.0000 -92.6333 104° East 480 552 39,000  Level Winnipeg Center
Thu 06:58:11 AM 48.9333 -92.4667 121° Southeast 480 552 39,000  Level Winnipeg Center
Thu 06:59:11 AM 48.9000 -92.2667 104° East 480 552 39,000  Level Winnipeg Center
Thu 07:00:11 AM 48.8500 -92.0667 111° Southeast 480 552 39,000  Level Winnipeg Center
Thu 07:01:11 AM 48.8000 -91.8833 112° Southeast 480 552 39,000  Level Winnipeg Center
Thu 07:02:11 AM 48.7500 -91.6833 111° Southeast 470 541 39,000  Level Winnipeg Center
Thu 07:03:11 AM 48.7000 -91.5167 114° Southeast 470 541 39,000  Level Winnipeg Center
Thu 07:04:11 AM 48.6500 -91.3500 114° Southeast 470 541 39,000  Level Winnipeg Center
Thu 07:05:11 AM 48.6000 -91.1500 111° Southeast 470 541 39,000  Level Winnipeg Center
Thu 07:06:11 AM 48.5500 -90.9833 114° Southeast 470 541 39,000  Level Winnipeg Center
Thu 07:07:11 AM 48.5000 -90.7833 111° Southeast 480 552 39,000  Level Winnipeg Center
Thu 07:08:11 AM 48.4333 -90.5833 117° Southeast 480 552 39,000  Level Winnipeg Center
Thu 07:09:11 AM 48.4000 -90.3833 104° East 480 552 39,000  Level Winnipeg Center
Thu 07:10:11 AM 48.3333 -90.2167 121° Southeast 480 552 39,000  Level Winnipeg Center
Thu 07:11:11 AM 48.2833 -90.0333 112° Southeast 480 552 39,000  Level Winnipeg Center
Thu 07:12:11 AM 48.2333 -89.8333 111° Southeast 490 564 39,000  Level Winnipeg Center
Thu 07:13:11 AM 48.1833 -89.6667 114° Southeast 490 564 39,000  Level Winnipeg Center
Thu 07:14:11 AM 48.1167 -89.4667 116° Southeast 490 564 39,000  Level Winnipeg Center
Thu 07:15:11 AM 48.0667 -89.2833 112° Southeast 490 564 39,000  Level Winnipeg Center
Thu 07:16:11 AM 48.0167 -89.0833 110° East 490 564 39,000  Level Winnipeg Center
Thu 07:17:11 AM 47.9667 -88.9000 112° Southeast 500 575 39,000  Level Winnipeg Center
Thu 07:18:11 AM 47.9000 -88.7000 116° Southeast 500 575 39,000  Level Winnipeg Center
Thu 07:19:11 AM 47.8500 -88.5333 114° Southeast 490 564 39,000  Level Winnipeg Center
Thu 07:20:11 AM 47.7833 -88.3500 118° Southeast 490 564 39,000  Level Winnipeg Center
Thu 07:21:11 AM 47.7333 -88.1667 112° Southeast 490 564 39,000  Level Winnipeg Center
Thu 07:22:11 AM 47.6667 -87.9667 116° Southeast 490 564 39,000  Level Winnipeg Center
Thu 07:23:11 AM 47.6167 -87.7833 112° Southeast 490 564 39,000  Level Winnipeg Center
Thu 07:24:11 AM 47.5500 -87.6167 121° Southeast 500 575 39,000  Level Winnipeg Center
Thu 07:25:11 AM 47.5000 -87.4333 112° Southeast 500 575 39,000  Level Winnipeg Center
Thu 07:26:11 AM 47.4333 -87.2500 118° Southeast 500 575 39,000  Level Winnipeg Center
Thu 07:27:11 AM 47.3833 -87.0500 110° East 490 564 39,000  Level Winnipeg Center
Thu 07:28:11 AM 47.3167 -86.8667 118° Southeast 490 564 39,000  Level Winnipeg Center
Thu 07:29:11 AM 47.2667 -86.6833 112° Southeast 490 564 39,000  Level Winnipeg Center
Thu 07:30:11 AM 47.2000 -86.5167 120° Southeast 490 564 39,000  Level Winnipeg Center
Thu 07:31:11 AM 47.1500 -86.3333 112° Southeast 490 564 39,000  Level Winnipeg Center
Thu 07:32:11 AM 47.0833 -86.1500 118° Southeast 480 552 39,000  Level Winnipeg Center
Thu 07:33:11 AM 47.0333 -85.9667 112° Southeast 480 552 39,000  Level Winnipeg Center
Thu 07:34:11 AM 46.9667 -85.8167 123° Southeast 480 552 39,000  Level Winnipeg Center
Thu 07:35:11 AM 46.9167 -85.6500 114° Southeast 480 552 39,000  Level Winnipeg Center
Thu 07:36:11 AM 46.8500 -85.4667 118° Southeast 480 552 39,000  Level Winnipeg Center
Thu 07:37:11 AM 46.8000 -85.2833 112° Southeast 480 552 39,000  Level Winnipeg Center
Thu 07:38:11 AM 46.7333 -85.1000 118° Southeast 490 564 39,000  Level Winnipeg Center
Thu 07:39:11 AM 46.6667 -84.9500 123° Southeast 490 564 39,000  Level Winnipeg Center
Thu 07:40:11 AM 46.6167 -84.7333 108° East 490 564 39,000  Level Winnipeg Center
Thu 07:41:11 AM 46.5500 -84.5833 123° Southeast 490 564 39,000  Level Winnipeg Center
Thu 07:42:11 AM 46.5000 -84.4167 113° Southeast 480 552 39,000  Level Winnipeg Center
Thu 07:43:36 AM 46.4167 -84.2000 119° Southeast 490 564 39,000  Level Toronto Center
Thu 07:44:36 AM 46.3500 -84.0333 120° Southeast 490 564 39,000  Level Toronto Center
Thu 07:45:36 AM 46.2833 -83.8500 118° Southeast 490 564 39,000  Level Toronto Center
Thu 07:46:36 AM 46.2333 -83.6833 113° Southeast 480 552 39,000  Level Toronto Center
Thu 07:47:36 AM 46.1667 -83.5167 120° Southeast 480 552 39,000  Level Toronto Center
Thu 07:48:36 AM 46.1000 -83.3333 118° Southeast 480 552 39,000  Level Toronto Center
Thu 07:49:36 AM 46.0500 -83.1833 116° Southeast 480 552 39,000  Level Toronto Center
Thu 07:50:36 AM 45.9667 -83.0167 126° Southeast 480 552 39,000  Level Toronto Center
Thu 07:51:36 AM 45.9167 -82.8500 113° Southeast 470 541 39,000  Level Toronto Center
Thu 07:52:36 AM 45.8500 -82.6667 118° Southeast 470 541 39,000  Level Toronto Center
Thu 07:53:36 AM 45.7833 -82.5000 120° Southeast 470 541 39,000  Level Toronto Center
Thu 07:54:36 AM 45.7167 -82.3333 120° Southeast 470 541 39,000  Level Toronto Center
Thu 07:55:36 AM 45.6500 -82.1833 122° Southeast 470 541 39,000  Level Toronto Center
Thu 07:56:36 AM 45.5833 -82.0167 120° Southeast 480 552 39,000  Level Toronto Center
Thu 07:57:36 AM 45.5333 -81.8500 113° Southeast 480 552 39,000  Level Toronto Center
Thu 07:58:36 AM 45.4667 -81.7000 122° Southeast 480 552 39,000  Level Toronto Center
Thu 07:59:36 AM 45.4000 -81.5000 115° Southeast 480 552 39,000  Level Toronto Center
Thu 08:00:36 AM 45.3333 -81.3667 125° Southeast 480 552 39,000  Level Toronto Center
Thu 08:01:36 AM 45.2667 -81.2000 120° Southeast 480 552 39,000 -750 Level Toronto Center
Thu 08:02:36 AM 45.1667 -81.0833 141° Southeast 480 552 37,500 -2,300 Descending Toronto Center
Thu 08:03:36 AM 45.0500 -80.9500 141° Southeast 480 552 34,400 -2,750 Descending Toronto Center
Thu 08:04:36 AM 44.9500 -80.8500 145° Southeast 480 552 32,000 -2,050 Descending Toronto Center
Thu 08:05:36 AM 44.8500 -80.7667 149° Southeast 460 529 30,300 -2,200 Descending Toronto Center
Thu 08:06:36 AM 44.7333 -80.6667 149° Southeast 450 518 27,600 -2,400 Descending Toronto Center
Thu 08:07:36 AM 44.6333 -80.5667 145° Southeast 440 506 25,500 -2,750 Descending Toronto Center
Thu 08:08:36 AM 44.5333 -80.4667 145° Southeast 450 518 22,100 -2,450 Descending Toronto Center
Thu 08:09:36 AM 44.4333 -80.4000 155° Southeast 430 495 20,600 -1,600 Descending Toronto Center
Thu 08:10:36 AM 44.3333 -80.3167 149° Southeast 410 472 18,900 -1,800 Descending Toronto Center
Thu 08:11:36 AM 44.2500 -80.2167 139° Southeast 390 449 17,000 -1,800 Descending Toronto Center
Thu 08:12:36 AM 44.1667 -80.1500 150° Southeast 370 426 15,300 -1,650 Descending Toronto Center
Thu 08:13:36 AM 44.0833 -80.0667 144° Southeast 350 403 13,700 -1,550 Descending Toronto Center
Thu 08:14:36 AM 44.0000 -80.0000 150° Southeast 340 391 12,200 -1,450 Descending Toronto Center
Thu 08:15:36 AM 43.9333 -79.9167 138° Southeast 320 368 10,800 -1,500 Descending Toronto Center
Thu 08:16:36 AM 43.8667 -79.8333 138° Southeast 310 357 9,200 -1,400 Descending Toronto Center
Thu 08:17:36 AM 43.8000 -79.7667 144° Southeast 300 345 8,000 -750 Descending Toronto Center
Thu 08:18:36 AM 43.7333 -79.7333 160° South 290 334 7,700 -600 Descending Toronto Center
Thu 08:19:36 AM 43.6833 -79.8000 224° Southwest 250 288 6,800 -950 Descending Toronto Center
Thu 08:20:36 AM 43.6333 -79.8667 224° Southwest 250 288 5,800 -850 Descending Toronto Center
Thu 08:21:36 AM 43.5833 -79.9167 216° Southwest 230 265 5,100 -900 Descending Toronto Center
Thu 08:22:36 AM 43.5333 -79.8833 154° Southeast 230 265 4,000 -750 Descending Toronto Center
Thu 08:23:36 AM 43.5500 -79.8167 71° East 180 207 3,600 -350 Descending Toronto Center
Thu 08:24:36 AM 43.5833 -79.7667 47° Northeast 160 184 3,300 -600 Descending Toronto Center
Thu 08:25:36 AM 43.6000 -79.7333 55° Northeast 150 173 2,400 -800 Descending Toronto Center
Thu 08:26:36 AM 43.6333 -79.7000 36° Northeast 130 150 1,700 -750 Descending Toronto Center
Thu 08:27:36 AM 43.6500 -79.6500 65° Northeast 130 150 900 -800 Descending Toronto Center

Login

Don't have an account? Register now (free) for customized features, flight alerts, and more!